Terminal Aerodrome Forecast
Issued by NWS

Home | Current Version | Previous Version | Text Only | Print | Product List | Glossary On
Versions: 1 2 3 4 5 6 7 8 9 10 11 12 13 14 15
313
FTUS43 KIND 291120
TAFHUF
TAF
KHUF 291120Z 2912/3012 20010G20KT P6SM FEW045 SCT200
     FM291500 22014G23KT P6SM FEW045 SCT050
     FM292300 19012KT P6SM SCT150
     FM300100 19008KT P6SM SCT150
     FM300800 19008KT P6SM BKN045
     FM300900 19008KT P6SM BKN015=

USA.gov is the U.S. government's official web portal to all federal, state and local government web resources and services.